ADDS METAR Data INFO
IDs: Format: Raw Decoded Include TAF

Data at: 0026 UTC 11 Dec 2017

KBPK 102353Z AUTO VRB05KT 10SM CLR 12/M03 A3014 RMK AO2 SLP210 T01171033 10161 20117 53014
KBPK 102253Z AUTO 31006KT 10SM CLR 13/M03 A3011 RMK AO2 SLP200 T01331033
KBPK 102153Z AUTO 32005G14KT 10SM CLR 15/M05 A3011 RMK AO2 SLP197 T01501050
KBPK 101953Z AUTO 31008G16KT 260V340 10SM CLR 16/M06 A3010 RMK AO2 SLP194 T01561056
KBPK 101853Z AUTO 31006KT 10SM CLR 16/M05 A3010 RMK AO2 SLP193 T01561050
KBPK 101753Z AUTO VRB05KT 10SM CLR 13/M04 A3012 RMK AO2 SLP202 T01331039 10133 21033 58016
KBPK 101653Z AUTO 26005KT 10SM CLR 10/M04 A3014 RMK AO2 SLP210 T01001039
KBPK 101553Z AUTO VRB05KT 10SM CLR 06/M05 A3016 RMK AO2 SLP219 T00611050
KBPK 101453Z AUTO 22004KT 10SM CLR 01/M06 A3017 RMK AO2 SLP224 T00111056 58010
KBPK 101353Z AUTO 22003KT 10SM CLR M02/M06 A3019 RMK AO2 SLP230 T10171056
KBPK 101253Z AUTO 25005KT 10SM CLR M01/M07 A3020 RMK AO2 SLP232 T10111067
KBPK 101053Z AUTO 24004KT 10SM CLR M03/M07 A3022 RMK AO2 SLP239 T10331072
KBPK 100953Z AUTO 23004KT 10SM CLR M04/M07 A3024 RMK AO2 SLP245 T10391072
KBPK 100853Z AUTO 20003KT 10SM CLR M03/M07 A3024 RMK AO2 SLP245 T10331072 55003
KBPK 100753Z AUTO 00000KT 10SM CLR M02/M07 A3024 RMK AO2 SLP244 T10171072
KBPK 100653Z AUTO 00000KT 10SM CLR 00/M07 A3023 RMK AO2 SLP243 T00001067
KBPK 100553Z AUTO 25003KT 10SM CLR 01/M06 A3025 RMK AO2 SLP247 T00061061 10039 21017 400721022 53003
KBPK 100453Z AUTO 00000KT 10SM CLR M01/M06 A3024 RMK AO2 SLP247 T10061061
KBPK 100353Z AUTO 00000KT 10SM CLR 01/M07 A3023 RMK AO2 SLP242 T00061072
KBPK 100253Z AUTO 35003KT 10SM CLR 00/M08 A3024 RMK AO2 SLP245 T00001078 53018
KBPK 100153Z AUTO 00000KT 10SM CLR 01/M07 A3021 RMK AO2 SLP237 T00061072
KBPK 100053Z AUTO 00000KT 10SM CLR 03/M08 A3019 RMK AO2 SLP230 T00281078
KBPK 092353Z AUTO 36003KT 10SM CLR 04/M08 A3018 RMK AO2 SLP225 T00391078 10072 20039 51026
KBPK 092253Z AUTO 35005KT 10SM CLR 06/M09 A3016 RMK AO2 SLP217 T00561089
KBPK 092153Z AUTO VRB06KT 10SM CLR 07/M08 A3013 RMK AO2 SLP208 T00721083
KBPK 092053Z AUTO 33009G16KT 300V360 10SM CLR 07/M08 A3010 RMK AO2 SLP198 T00671083 53012
KBPK 091953Z AUTO 36009G19KT 10SM CLR 07/M07 A3009 RMK AO2 SLP192 T00671072
KBPK 091853Z AUTO 35009G17KT 10SM CLR 07/M06 A3007 RMK AO2 SLP185 T00671061
KBPK 091753Z AUTO 36010G16KT 10SM CLR 06/M05 A3007 RMK AO2 SLP186 T00561050 10056 20000 50015
KBPK 091653Z AUTO 34012G20KT 300V010 10SM FEW033 04/M04 A3007 RMK AO2 SLP188 T00441039
KBPK 091553Z AUTO 35009G18KT 10SM CLR 03/M04 A3005 RMK AO2 SLP181 T00331039
KBPK 091453Z AUTO 34012G19KT 10SM CLR 02/M03 A3002 RMK AO2 SLP172 T00221033 53016
KBPK 091353Z AUTO VRB05KT 10SM CLR 01/M04 A2999 RMK AO2 SLP161 T00111039
KBPK 091253Z AUTO VRB05KT 10SM CLR 00/M05 A2998 RMK AO2 SLP160 T00001050